createdAt,value
2019-05-19T00:00:40.977Z,33.70
2019-05-19T00:03:09.597Z,35.50
2019-05-19T00:05:37.975Z,32.97
2019-05-19T00:08:06.374Z,34.13
2019-05-19T00:10:36.549Z,33.00
2019-05-19T00:13:04.936Z,32.13
2019-05-19T00:15:33.433Z,33.53
2019-05-19T00:18:01.919Z,31.73
2019-05-19T00:20:30.514Z,33.80
2019-05-19T00:22:58.935Z,42.50
2019-05-19T00:25:27.432Z,35.37
2019-05-19T00:27:56.618Z,32.63
2019-05-19T00:30:25.616Z,32.37
2019-05-19T00:32:54.128Z,32.23
2019-05-19T00:35:22.541Z,34.67
2019-05-19T00:37:51.029Z,33.27
2019-05-19T00:40:19.479Z,33.90
2019-05-19T00:42:48.503Z,34.90
2019-05-19T00:45:17.155Z,33.77
2019-05-19T00:47:45.520Z,34.23
2019-05-19T00:50:14.100Z,35.90
2019-05-19T00:52:42.588Z,33.73
2019-05-19T00:55:11.199Z,35.93
2019-05-19T00:57:39.728Z,34.40
2019-05-19T01:00:09.136Z,33.90
2019-05-19T01:02:37.726Z,31.33
2019-05-19T01:05:07.313Z,33.43
2019-05-19T01:07:35.745Z,33.60
2019-05-19T01:10:05.447Z,32.40
2019-05-19T01:12:34.023Z,35.83
2019-05-19T01:15:05.324Z,33.00
2019-05-19T01:17:33.832Z,35.37
2019-05-19T01:20:02.383Z,33.20
2019-05-19T01:22:30.836Z,30.77
2019-05-19T01:24:59.307Z,31.70
2019-05-19T01:27:27.793Z,33.57
2019-05-19T01:29:56.177Z,32.43
2019-05-19T01:32:24.674Z,32.77
2019-05-19T01:34:53.272Z,32.53
2019-05-19T01:37:21.777Z,31.83
2019-05-19T01:39:51.944Z,32.30
2019-05-19T01:42:20.479Z,32.83
2019-05-19T01:44:48.877Z,30.87
2019-05-19T01:47:17.346Z,32.40
2019-05-19T01:49:45.752Z,32.30
2019-05-19T01:52:14.216Z,34.47
2019-05-19T01:54:44.403Z,35.83
2019-05-19T01:57:12.880Z,33.97
2019-05-19T01:59:41.266Z,33.60
2019-05-19T02:02:09.773Z,32.90
2019-05-19T02:04:38.276Z,34.77
2019-05-19T02:07:06.747Z,30.63
2019-05-19T02:09:35.140Z,37.83
2019-05-19T02:12:03.613Z,35.10
2019-05-19T02:14:32.084Z,31.37
2019-05-19T02:17:00.559Z,31.90
2019-05-19T02:19:29.020Z,31.97
2019-05-19T02:21:57.536Z,31.13
2019-05-19T02:24:26.000Z,34.67
2019-05-19T02:26:55.555Z,31.37
2019-05-19T02:29:24.034Z,31.87
2019-05-19T02:31:52.488Z,34.40
2019-05-19T02:34:20.876Z,32.90
2019-05-19T02:36:50.664Z,33.90
2019-05-19T02:39:19.037Z,31.10
2019-05-19T02:41:48.871Z,33.00
2019-05-19T02:44:18.764Z,33.47
2019-05-19T02:46:47.839Z,30.00
2019-05-19T02:49:18.520Z,32.73
2019-05-19T02:51:48.740Z,32.13
2019-05-19T02:54:18.847Z,32.27
2019-05-19T02:56:54.662Z,32.70
2019-05-19T02:59:24.155Z,33.10
2019-05-19T03:02:06.836Z,32.53
2019-05-19T03:04:35.272Z,33.43
2019-05-19T03:07:05.437Z,31.93
2019-05-19T03:09:33.912Z,31.03
2019-05-19T03:12:02.403Z,31.53
2019-05-19T03:14:30.784Z,33.53
2019-05-19T03:16:59.154Z,30.30
2019-05-19T03:19:28.029Z,31.37
2019-05-19T03:21:56.445Z,29.80
2019-05-19T03:24:24.931Z,31.83
2019-05-19T03:26:56.895Z,32.50
2019-05-19T03:29:30.593Z,31.90
2019-05-19T03:32:14.941Z,30.97
2019-05-19T03:34:43.312Z,30.47
2019-05-19T03:37:11.785Z,31.20
2019-05-19T03:39:40.262Z,35.20
2019-05-19T03:42:10.579Z,31.57
2019-05-19T03:44:40.826Z,31.60
2019-05-19T03:47:10.974Z,32.73
2019-05-19T03:49:41.184Z,33.40
2019-05-19T03:52:09.570Z,31.60
2019-05-19T03:54:38.352Z,31.93
2019-05-19T03:57:06.774Z,34.23
2019-05-19T03:59:35.157Z,31.87
2019-05-19T04:02:03.551Z,30.23
2019-05-19T04:04:32.021Z,32.50
2019-05-19T04:07:00.500Z,30.17
2019-05-19T04:09:30.478Z,33.53
2019-05-19T04:11:59.032Z,31.23
2019-05-19T04:14:27.408Z,30.50
2019-05-19T04:16:55.837Z,31.57
2019-05-19T04:19:24.318Z,31.10
2019-05-19T04:21:52.733Z,30.97
2019-05-19T04:24:21.226Z,31.70
2019-05-19T04:26:57.990Z,30.27
2019-05-19T04:29:27.273Z,34.93
2019-05-19T04:31:55.837Z,28.93
2019-05-19T04:34:24.696Z,30.37
2019-05-19T04:36:53.660Z,29.57
2019-05-19T04:39:22.158Z,31.07
2019-05-19T04:41:51.516Z,31.30
2019-05-19T04:44:19.882Z,30.57
2019-05-19T04:46:48.262Z,32.07
2019-05-19T04:49:17.043Z,31.03
2019-05-19T04:51:45.472Z,32.27
2019-05-19T04:54:14.058Z,29.20
2019-05-19T04:56:43.957Z,34.23
2019-05-19T04:59:12.874Z,30.23
2019-05-19T05:01:41.308Z,32.67
2019-05-19T05:04:09.690Z,30.13
2019-05-19T05:06:38.071Z,31.27
2019-05-19T05:09:06.598Z,31.53
2019-05-19T05:11:35.119Z,28.60
2019-05-19T05:14:03.921Z,28.40
2019-05-19T05:16:32.404Z,29.00
2019-05-19T05:19:00.792Z,29.47
2019-05-19T05:21:29.342Z,28.00
2019-05-19T05:23:58.181Z,28.87
2019-05-19T05:26:26.696Z,30.63
2019-05-19T05:28:55.386Z,30.63
2019-05-19T05:31:23.867Z,30.50
2019-05-19T05:33:52.263Z,28.40
2019-05-19T05:36:21.397Z,28.87
2019-05-19T05:38:50.190Z,28.10
2019-05-19T05:41:18.679Z,29.00
2019-05-19T05:43:47.243Z,28.33
2019-05-19T05:46:16.540Z,29.47
2019-05-19T05:48:45.432Z,28.87
2019-05-19T05:51:13.910Z,29.77
2019-05-19T05:53:42.312Z,30.90
2019-05-19T05:56:10.693Z,26.97
2019-05-19T05:58:39.542Z,28.97
2019-05-19T06:01:09.283Z,31.97
2019-05-19T06:03:37.764Z,29.07
2019-05-19T06:06:06.160Z,28.50
2019-05-19T06:08:34.632Z,29.43
2019-05-19T06:11:03.329Z,29.00
2019-05-19T06:13:31.897Z,28.03
2019-05-19T06:16:02.242Z,28.07
2019-05-19T06:18:31.356Z,28.37
2019-05-19T06:21:00.833Z,29.10
2019-05-19T06:23:30.922Z,28.70
2019-05-19T06:26:00.690Z,27.33
2019-05-19T06:28:30.277Z,28.43
2019-05-19T06:31:00.912Z,28.53
2019-05-19T06:33:29.503Z,28.70
2019-05-19T06:35:58.135Z,28.00
2019-05-19T06:38:28.602Z,28.80
2019-05-19T06:40:59.244Z,27.03
2019-05-19T06:43:28.200Z,27.90
2019-05-19T06:45:57.356Z,29.63
2019-05-19T06:48:26.769Z,26.17
2019-05-19T06:50:55.479Z,28.77
2019-05-19T06:53:23.978Z,30.80
2019-05-19T06:55:53.103Z,30.33
2019-05-19T06:58:21.602Z,33.30
2019-05-19T07:00:50.167Z,34.40
2019-05-19T07:03:19.543Z,33.77
2019-05-19T07:05:47.927Z,36.17
2019-05-19T07:08:16.420Z,35.53
2019-05-19T07:10:44.811Z,35.43
2019-05-19T07:13:13.700Z,37.37
2019-05-19T07:15:42.185Z,33.80
2019-05-19T07:18:10.786Z,38.10
2019-05-19T07:20:39.624Z,35.73
2019-05-19T07:23:08.229Z,36.57
2019-05-19T07:25:36.654Z,33.60
2019-05-19T07:28:05.144Z,36.93
2019-05-19T07:30:33.564Z,35.83
2019-05-19T07:33:02.467Z,36.60
2019-05-19T07:35:30.879Z,38.13
2019-05-19T07:37:59.455Z,35.73
2019-05-19T07:40:28.744Z,37.10
2019-05-19T07:42:59.059Z,37.93
2019-05-19T07:45:27.691Z,38.93
2019-05-19T07:47:56.605Z,35.90
2019-05-19T07:50:25.102Z,38.13
2019-05-19T07:52:53.840Z,37.10
2019-05-19T07:55:22.817Z,36.53
2019-05-19T07:57:51.432Z,36.83
2019-05-19T08:00:20.471Z,35.13
2019-05-19T08:02:49.169Z,39.13
2019-05-19T08:05:17.585Z,42.00
2019-05-19T08:07:46.032Z,39.13
2019-05-19T08:10:14.503Z,37.80
2019-05-19T08:12:43.054Z,36.40
2019-05-19T08:15:11.698Z,39.37
2019-05-19T08:17:40.101Z,36.47
2019-05-19T08:20:09.864Z,37.47
2019-05-19T08:22:38.449Z,37.27
2019-05-19T08:25:07.182Z,36.93
2019-05-19T08:27:35.669Z,35.70
2019-05-19T08:30:04.913Z,36.73
2019-05-19T08:32:34.898Z,36.17
2019-05-19T08:35:04.463Z,33.70
2019-05-19T08:37:33.698Z,34.20
2019-05-19T08:40:02.187Z,35.30
2019-05-19T08:42:30.776Z,33.00
2019-05-19T08:44:59.898Z,34.70
2019-05-19T08:47:28.817Z,36.40
2019-05-19T08:49:57.506Z,31.50
2019-05-19T08:52:25.996Z,33.93
2019-05-19T08:54:54.574Z,33.73
2019-05-19T08:57:22.982Z,32.03
2019-05-19T08:59:53.176Z,32.93
2019-05-19T09:02:21.821Z,29.70
2019-05-19T09:04:50.320Z,32.30
2019-05-19T09:07:18.813Z,28.03
2019-05-19T09:09:47.274Z,29.30
2019-05-19T09:12:15.791Z,29.33
2019-05-19T09:14:44.374Z,30.37
2019-05-19T09:17:12.797Z,28.00
2019-05-19T09:19:41.233Z,28.67
2019-05-19T09:22:09.863Z,27.83
2019-05-19T09:24:38.362Z,27.90
2019-05-19T09:27:08.963Z,26.87
2019-05-19T09:29:38.953Z,25.67
2019-05-19T09:32:07.353Z,27.13
2019-05-19T09:34:35.744Z,25.37
2019-05-19T09:37:04.737Z,24.30
2019-05-19T09:39:33.985Z,25.23
2019-05-19T09:42:02.517Z,24.77
2019-05-19T09:44:30.942Z,26.67
2019-05-19T09:46:59.638Z,23.43
2019-05-19T09:49:31.703Z,24.27
2019-05-19T09:52:03.587Z,22.43
2019-05-19T09:54:44.213Z,21.60
2019-05-19T09:57:08.263Z,21.73
2019-05-19T09:59:36.680Z,20.87
2019-05-19T10:02:05.248Z,21.20
2019-05-19T10:04:33.843Z,20.90
2019-05-19T10:07:03.299Z,22.03
2019-05-19T10:10:05.377Z,22.63
2019-05-19T10:12:33.868Z,24.93
2019-05-19T10:15:02.891Z,20.97
2019-05-19T10:17:31.617Z,20.73
2019-05-19T10:20:00.001Z,20.70
2019-05-19T10:22:28.499Z,19.90
2019-05-19T10:25:18.179Z,19.70
2019-05-19T10:27:27.778Z,20.77
2019-05-19T10:29:57.389Z,22.80
2019-05-19T10:32:26.043Z,20.93
2019-05-19T10:34:54.466Z,22.03
2019-05-19T10:37:23.612Z,22.80
2019-05-19T10:39:53.839Z,24.60
2019-05-19T10:42:22.384Z,21.10
2019-05-19T10:44:50.948Z,22.30
2019-05-19T10:47:19.427Z,21.63
2019-05-19T10:49:47.991Z,22.33
2019-05-19T10:52:16.666Z,21.50
2019-05-19T10:54:45.225Z,20.70
2019-05-19T10:57:14.881Z,22.33
2019-05-19T10:59:43.584Z,22.40
2019-05-19T11:02:13.803Z,21.77
2019-05-19T11:04:42.542Z,22.70
2019-05-19T11:07:11.119Z,22.83
2019-05-19T11:09:39.706Z,20.73
2019-05-19T11:12:08.273Z,22.13
2019-05-19T11:14:36.953Z,22.73
2019-05-19T11:17:05.318Z,20.93
2019-05-19T11:19:34.223Z,22.27
2019-05-19T11:22:03.145Z,20.77
2019-05-19T11:24:33.134Z,20.37
2019-05-19T11:27:06.213Z,20.47
2019-05-19T11:29:37.117Z,20.27
2019-05-19T11:32:05.518Z,18.50
2019-05-19T11:34:33.891Z,17.97
2019-05-19T11:37:02.298Z,18.80
2019-05-19T11:39:30.686Z,18.17
2019-05-19T11:41:59.242Z,20.07
2019-05-19T11:44:27.622Z,18.37
2019-05-19T11:46:56.062Z,16.13
2019-05-19T11:49:26.253Z,16.37
2019-05-19T11:51:54.793Z,15.20
2019-05-19T11:54:25.242Z,15.20
2019-05-19T11:56:56.463Z,14.63
2019-05-19T11:59:25.548Z,15.73
2019-05-19T12:01:54.031Z,17.40
2019-05-19T12:04:22.433Z,16.90
2019-05-19T12:06:50.830Z,15.10
2019-05-19T12:09:19.348Z,16.70
2019-05-19T12:11:47.779Z,17.67
2019-05-19T12:14:18.120Z,20.00
2019-05-19T12:16:48.355Z,15.33
2019-05-19T12:19:16.973Z,17.97
2019-05-19T12:21:45.576Z,17.87
2019-05-19T12:24:13.976Z,21.03
2019-05-19T12:26:43.900Z,16.27
2019-05-19T12:29:12.802Z,16.30
2019-05-19T12:31:41.467Z,17.60
2019-05-19T12:34:09.964Z,16.70
2019-05-19T12:36:39.499Z,17.13
2019-05-19T12:39:08.111Z,18.43
2019-05-19T12:41:36.681Z,17.40
2019-05-19T12:44:05.228Z,18.53
2019-05-19T12:46:34.068Z,18.73
2019-05-19T12:49:02.637Z,18.40
2019-05-19T12:51:31.216Z,19.00
2019-05-19T12:53:59.612Z,18.90
2019-05-19T12:56:39.047Z,16.33
2019-05-19T12:58:58.838Z,17.57
2019-05-19T13:01:27.580Z,18.60
2019-05-19T13:03:56.097Z,19.63
2019-05-19T13:06:25.097Z,22.13
2019-05-19T13:08:53.523Z,19.03
2019-05-19T13:11:21.998Z,25.83
2019-05-19T13:13:52.262Z,22.90
2019-05-19T13:16:20.692Z,22.73
2019-05-19T13:18:49.188Z,20.47
2019-05-19T13:21:17.707Z,22.67
2019-05-19T13:23:46.264Z,23.37
2019-05-19T13:26:14.754Z,24.20
2019-05-19T13:28:43.256Z,21.37
2019-05-19T13:31:11.653Z,21.00
2019-05-19T13:33:40.149Z,17.23
2019-05-19T13:36:08.651Z,15.10
2019-05-19T13:38:37.142Z,15.00
2019-05-19T13:41:06.163Z,14.50
2019-05-19T13:43:34.794Z,14.00
2019-05-19T13:46:03.169Z,15.10
2019-05-19T13:48:31.986Z,15.20
2019-05-19T13:51:00.362Z,18.70
2019-05-19T13:53:28.907Z,19.90
2019-05-19T13:55:57.408Z,19.33
2019-05-19T13:58:25.932Z,17.33
2019-05-19T14:00:54.343Z,17.30
2019-05-19T14:03:22.834Z,14.97
2019-05-19T14:05:51.318Z,13.43
2019-05-19T14:08:20.164Z,11.97
2019-05-19T14:10:50.341Z,14.80
2019-05-19T14:13:19.461Z,13.10
2019-05-19T14:15:47.940Z,13.23
2019-05-19T14:18:16.436Z,11.67
2019-05-19T14:20:44.935Z,12.87
2019-05-19T14:23:15.182Z,14.47
2019-05-19T14:25:43.943Z,13.97
2019-05-19T14:28:12.495Z,13.70
2019-05-19T14:30:42.023Z,17.30
2019-05-19T14:33:10.609Z,16.57
2019-05-19T14:35:39.041Z,12.23
2019-05-19T14:38:09.217Z,13.40
2019-05-19T14:40:37.700Z,13.73
2019-05-19T14:43:06.227Z,13.93
2019-05-19T14:45:36.447Z,14.67
2019-05-19T14:48:05.046Z,13.20
2019-05-19T14:50:35.249Z,14.07
2019-05-19T14:53:04.370Z,13.83
2019-05-19T14:55:34.563Z,13.90
2019-05-19T14:58:02.949Z,10.23
2019-05-19T15:00:31.430Z,10.07
2019-05-19T15:03:00.085Z,9.67
2019-05-19T15:05:29.566Z,8.50
2019-05-19T15:07:58.141Z,8.40
2019-05-19T15:10:26.540Z,14.47
2019-05-19T15:12:55.113Z,9.73
2019-05-19T15:15:24.093Z,8.60
2019-05-19T15:17:54.312Z,9.77
2019-05-19T15:20:24.738Z,8.97
2019-05-19T15:22:53.912Z,9.10
2019-05-19T15:25:22.767Z,12.77
2019-05-19T15:28:00.264Z,9.73
2019-05-19T15:30:23.477Z,10.77
2019-05-19T15:32:52.027Z,12.53
2019-05-19T15:35:20.610Z,13.40
2019-05-19T15:37:49.633Z,14.03
2019-05-19T15:40:18.141Z,14.17
2019-05-19T15:42:47.154Z,13.13
2019-05-19T15:45:15.815Z,12.90
2019-05-19T15:47:44.233Z,14.83
2019-05-19T15:50:16.567Z,14.83
2019-05-19T15:52:45.420Z,13.97
2019-05-19T15:55:14.208Z,12.07
2019-05-19T15:57:44.458Z,13.40
2019-05-19T16:00:13.679Z,14.00
2019-05-19T16:02:44.076Z,14.00
2019-05-19T16:05:13.217Z,13.73
2019-05-19T16:07:42.658Z,12.53
2019-05-19T16:10:12.741Z,13.83
2019-05-19T16:12:42.337Z,13.37
2019-05-19T16:15:13.399Z,12.87
2019-05-19T16:17:43.686Z,12.30
2019-05-19T16:20:12.741Z,12.87
2019-05-19T16:22:41.707Z,12.03
2019-05-19T16:25:10.277Z,10.77
2019-05-19T16:27:38.734Z,13.20
2019-05-19T16:30:08.193Z,12.20
2019-05-19T16:32:36.852Z,12.23
2019-05-19T16:35:05.823Z,13.57
2019-05-19T16:37:34.321Z,11.53
2019-05-19T16:40:05.180Z,12.40
2019-05-19T16:42:34.016Z,11.57
2019-05-19T16:45:04.477Z,11.93
2019-05-19T16:47:33.164Z,11.03
2019-05-19T16:50:01.575Z,13.67
2019-05-19T16:52:30.054Z,11.47
2019-05-19T16:55:17.281Z,12.13
2019-05-19T16:57:47.980Z,12.17
2019-05-19T17:00:16.651Z,13.20
2019-05-19T17:02:45.244Z,11.83
2019-05-19T17:05:15.547Z,11.80
2019-05-19T17:07:43.928Z,12.17
2019-05-19T17:10:12.839Z,11.80
2019-05-19T17:12:41.665Z,11.87
2019-05-19T17:15:10.528Z,15.30
2019-05-19T17:17:38.933Z,12.20
2019-05-19T17:20:09.528Z,11.43
2019-05-19T17:22:38.046Z,12.53
2019-05-19T17:25:08.463Z,11.23
2019-05-19T17:27:36.956Z,10.63
2019-05-19T17:30:06.101Z,12.47
2019-05-19T17:32:35.617Z,11.87
2019-05-19T17:35:04.382Z,11.13
2019-05-19T17:37:32.795Z,11.60
2019-05-19T17:40:01.278Z,13.00
2019-05-19T17:42:30.553Z,12.73
2019-05-19T17:44:58.984Z,12.03
2019-05-19T17:47:27.360Z,13.70
2019-05-19T17:49:55.856Z,11.33
2019-05-19T17:52:24.244Z,12.57
2019-05-19T17:54:53.034Z,13.13
2019-05-19T17:57:24.907Z,13.73
2019-05-19T17:59:53.984Z,13.60
2019-05-19T18:02:22.569Z,13.47
2019-05-19T18:04:51.085Z,13.97
2019-05-19T18:07:19.473Z,12.03
2019-05-19T18:09:47.862Z,13.53
2019-05-19T18:12:16.435Z,14.27
2019-05-19T18:14:44.928Z,13.17
2019-05-19T18:17:15.134Z,15.07
2019-05-19T18:19:43.509Z,15.90
2019-05-19T18:22:11.933Z,15.43
2019-05-19T18:24:40.513Z,15.97
2019-05-19T18:27:12.255Z,16.87
2019-05-19T18:29:42.401Z,15.90
2019-05-19T18:32:12.817Z,14.83
2019-05-19T18:34:41.192Z,14.97
2019-05-19T18:37:09.807Z,15.47
2019-05-19T18:39:38.205Z,16.13
2019-05-19T18:42:06.624Z,17.80
2019-05-19T18:44:35.239Z,16.80
2019-05-19T18:47:05.401Z,17.90
2019-05-19T18:49:34.058Z,17.27
2019-05-19T18:52:02.548Z,18.87
2019-05-19T18:54:31.049Z,17.77
2019-05-19T18:56:59.559Z,17.20
2019-05-19T18:59:28.221Z,20.63
2019-05-19T19:01:56.674Z,18.30
2019-05-19T19:04:25.063Z,18.33
2019-05-19T19:06:53.906Z,18.73
2019-05-19T19:09:22.281Z,19.37
2019-05-19T19:11:50.748Z,18.73
2019-05-19T19:14:19.232Z,15.20
2019-05-19T19:16:47.770Z,13.00
2019-05-19T19:19:16.246Z,12.17
2019-05-19T19:21:44.656Z,11.53
2019-05-19T19:24:13.696Z,10.63
2019-05-19T19:26:42.631Z,16.43
2019-05-19T19:29:11.342Z,11.70
2019-05-19T19:31:48.726Z,12.53
2019-05-19T19:34:12.080Z,11.93
2019-05-19T19:36:40.802Z,12.90
2019-05-19T19:39:09.508Z,11.80
2019-05-19T19:41:38.000Z,15.10
2019-05-19T19:44:06.410Z,13.87
2019-05-19T19:46:34.895Z,14.07
2019-05-19T19:49:03.281Z,14.23
2019-05-19T19:51:31.686Z,17.50
2019-05-19T19:54:00.310Z,17.53
2019-05-19T19:56:28.912Z,23.00
2019-05-19T19:58:57.286Z,19.00
2019-05-19T20:01:26.161Z,18.87
2019-05-19T20:03:55.459Z,20.00
2019-05-19T20:06:24.355Z,19.17
2019-05-19T20:08:52.756Z,17.73
2019-05-19T20:11:22.190Z,16.50
2019-05-19T20:13:50.613Z,18.00
2019-05-19T20:16:20.786Z,17.57
2019-05-19T20:18:49.192Z,16.73
2019-05-19T20:21:18.690Z,16.10
2019-05-19T20:23:47.246Z,15.13
2019-05-19T20:26:16.318Z,16.03
2019-05-19T20:28:44.741Z,16.60
2019-05-19T20:31:13.107Z,15.87
2019-05-19T20:33:41.665Z,15.17
2019-05-19T20:36:10.646Z,15.93
2019-05-19T20:38:39.152Z,16.70
2019-05-19T20:41:07.652Z,17.57
2019-05-19T20:43:36.217Z,17.67
2019-05-19T20:46:04.606Z,15.17
2019-05-19T20:48:33.032Z,17.43
2019-05-19T20:51:01.647Z,18.50
2019-05-19T20:53:30.066Z,16.80
2019-05-19T20:55:58.552Z,18.67
2019-05-19T20:58:27.031Z,17.13
2019-05-19T21:00:56.350Z,17.50
2019-05-19T21:03:24.737Z,18.50
2019-05-19T21:05:53.209Z,15.33
2019-05-19T21:08:21.593Z,16.50
2019-05-19T21:10:50.080Z,17.00
2019-05-19T21:13:18.499Z,17.00
2019-05-19T21:15:46.977Z,17.00
2019-05-19T21:18:15.740Z,18.73
2019-05-19T21:20:44.175Z,20.33
2019-05-19T21:23:13.354Z,17.23
2019-05-19T21:25:41.745Z,18.53
2019-05-19T21:28:10.120Z,22.07
2019-05-19T21:30:38.534Z,18.47
2019-05-19T21:33:07.019Z,17.73
2019-05-19T21:35:35.409Z,16.70
2019-05-19T21:38:03.889Z,18.10
2019-05-19T21:40:32.679Z,17.73
2019-05-19T21:43:01.258Z,18.90
2019-05-19T21:45:29.658Z,18.43
2019-05-19T21:47:58.124Z,19.13
2019-05-19T21:50:26.709Z,15.30
2019-05-19T21:52:56.933Z,16.63
2019-05-19T21:55:25.547Z,18.70
2019-05-19T21:57:54.051Z,16.73
2019-05-19T22:00:28.948Z,16.17
2019-05-19T22:02:57.478Z,18.07
2019-05-19T22:05:25.918Z,17.20
2019-05-19T22:08:23.178Z,18.20
2019-05-19T22:10:51.570Z,17.53
2019-05-19T22:13:20.884Z,19.37
2019-05-19T22:15:49.260Z,18.80
2019-05-19T22:18:17.632Z,16.93
2019-05-19T22:20:46.150Z,18.63
2019-05-19T22:23:14.520Z,16.53
2019-05-19T22:25:45.201Z,18.50
2019-05-19T22:28:13.580Z,18.37
2019-05-19T22:30:42.460Z,20.57
2019-05-19T22:33:10.919Z,17.23
2019-05-19T22:35:39.573Z,17.33
2019-05-19T22:38:09.524Z,17.53
2019-05-19T22:40:38.294Z,18.30
2019-05-19T22:43:06.667Z,17.33
2019-05-19T22:45:35.475Z,17.70
2019-05-19T22:48:03.951Z,17.97
2019-05-19T22:50:32.313Z,16.13
2019-05-19T22:53:00.729Z,19.40
2019-05-19T22:55:29.110Z,16.07
2019-05-19T22:57:57.524Z,14.90
2019-05-19T23:00:26.401Z,16.93
2019-05-19T23:02:54.887Z,14.20
2019-05-19T23:05:23.298Z,15.67
2019-05-19T23:07:51.648Z,15.70
2019-05-19T23:10:20.833Z,14.53
2019-05-19T23:12:51.110Z,13.00
2019-05-19T23:15:20.110Z,13.50
2019-05-19T23:17:48.487Z,15.40
2019-05-19T23:20:16.983Z,12.40
2019-05-19T23:22:45.550Z,14.27
2019-05-19T23:25:14.253Z,13.93
2019-05-19T23:27:42.725Z,14.67
2019-05-19T23:30:13.201Z,14.13
2019-05-19T23:32:41.758Z,13.63
2019-05-19T23:35:10.849Z,13.10
2019-05-19T23:37:39.230Z,14.50
2019-05-19T23:40:08.920Z,13.97
2019-05-19T23:42:37.279Z,18.17
2019-05-19T23:45:06.514Z,18.13
2019-05-19T23:47:35.045Z,17.20
2019-05-19T23:50:03.802Z,16.77
2019-05-19T23:52:32.433Z,18.87
2019-05-19T23:55:01.029Z,16.93
2019-05-19T23:57:36.583Z,17.57
